sensor_id;sensor_type;location;lat;lon;timestamp;P1;durP1;ratioP1;P2;durP2;ratioP2
3379;SDS011;1703;51.964;7.642;2023-11-21T00:00:23;23.97;;;10.83;;
3379;SDS011;1703;51.964;7.642;2023-11-21T00:02:51;14.50;;;10.13;;
3379;SDS011;1703;51.964;7.642;2023-11-21T00:05:17;18.43;;;12.77;;
3379;SDS011;1703;51.964;7.642;2023-11-21T00:07:46;20.63;;;13.60;;
3379;SDS011;1703;51.964;7.642;2023-11-21T00:10:12;25.73;;;12.07;;
3379;SDS011;1703;51.964;7.642;2023-11-21T00:12:41;21.93;;;12.47;;
3379;SDS011;1703;51.964;7.642;2023-11-21T00:15:08;20.27;;;13.63;;
3379;SDS011;1703;51.964;7.642;2023-11-21T00:17:37;20.90;;;11.23;;
3379;SDS011;1703;51.964;7.642;2023-11-21T00:20:05;18.67;;;11.70;;
3379;SDS011;1703;51.964;7.642;2023-11-21T00:22:32;19.10;;;11.23;;
3379;SDS011;1703;51.964;7.642;2023-11-21T00:25:01;25.97;;;13.33;;
3379;SDS011;1703;51.964;7.642;2023-11-21T00:27:29;22.20;;;12.03;;
3379;SDS011;1703;51.964;7.642;2023-11-21T00:29:55;24.43;;;12.60;;
3379;SDS011;1703;51.964;7.642;2023-11-21T00:32:22;21.90;;;11.90;;
3379;SDS011;1703;51.964;7.642;2023-11-21T00:34:49;33.07;;;12.27;;
3379;SDS011;1703;51.964;7.642;2023-11-21T00:37:16;23.77;;;11.90;;
3379;SDS011;1703;51.964;7.642;2023-11-21T00:39:43;23.83;;;12.03;;
3379;SDS011;1703;51.964;7.642;2023-11-21T00:42:11;20.77;;;11.73;;
3379;SDS011;1703;51.964;7.642;2023-11-21T00:44:38;22.97;;;13.83;;
3379;SDS011;1703;51.964;7.642;2023-11-21T00:47:05;21.70;;;11.60;;
3379;SDS011;1703;51.964;7.642;2023-11-21T00:49:33;17.60;;;11.77;;
3379;SDS011;1703;51.964;7.642;2023-11-21T00:52:00;16.17;;;11.40;;
3379;SDS011;1703;51.964;7.642;2023-11-21T00:54:27;18.90;;;11.27;;
3379;SDS011;1703;51.964;7.642;2023-11-21T00:56:54;20.27;;;10.60;;
3379;SDS011;1703;51.964;7.642;2023-11-21T00:59:23;20.40;;;11.53;;
3379;SDS011;1703;51.964;7.642;2023-11-21T01:01:49;16.63;;;10.87;;
3379;SDS011;1703;51.964;7.642;2023-11-21T01:04:16;18.40;;;11.70;;
3379;SDS011;1703;51.964;7.642;2023-11-21T01:06:43;22.93;;;12.60;;
3379;SDS011;1703;51.964;7.642;2023-11-21T01:09:10;16.90;;;11.70;;
3379;SDS011;1703;51.964;7.642;2023-11-21T01:11:37;24.77;;;12.03;;
3379;SDS011;1703;51.964;7.642;2023-11-21T01:14:04;20.13;;;13.80;;
3379;SDS011;1703;51.964;7.642;2023-11-21T01:16:33;23.63;;;11.93;;
3379;SDS011;1703;51.964;7.642;2023-11-21T01:18:59;19.27;;;12.23;;
3379;SDS011;1703;51.964;7.642;2023-11-21T01:21:28;19.13;;;14.10;;
3379;SDS011;1703;51.964;7.642;2023-11-21T01:23:56;25.23;;;15.00;;
3379;SDS011;1703;51.964;7.642;2023-11-21T01:30:23;19.23;;;12.50;;
3379;SDS011;1703;51.964;7.642;2023-11-21T01:41:02;23.07;;;11.80;;
3379;SDS011;1703;51.964;7.642;2023-11-21T01:43:46;28.43;;;13.80;;
3379;SDS011;1703;51.964;7.642;2023-11-21T01:47:06;19.57;;;11.80;;
3379;SDS011;1703;51.964;7.642;2023-11-21T01:57:10;20.30;;;11.97;;
3379;SDS011;1703;51.964;7.642;2023-11-21T02:01:03;19.10;;;12.70;;
3379;SDS011;1703;51.964;7.642;2023-11-21T02:03:57;24.50;;;12.23;;
3379;SDS011;1703;51.964;7.642;2023-11-21T02:08:53;24.90;;;14.17;;
3379;SDS011;1703;51.964;7.642;2023-11-21T02:13:56;18.17;;;11.97;;
3379;SDS011;1703;51.964;7.642;2023-11-21T02:16:39;21.60;;;12.80;;
3379;SDS011;1703;51.964;7.642;2023-11-21T02:19:32;18.53;;;11.27;;
3379;SDS011;1703;51.964;7.642;2023-11-21T02:22:04;16.77;;;13.20;;
3379;SDS011;1703;51.964;7.642;2023-11-21T02:25:01;24.90;;;13.00;;
3379;SDS011;1703;51.964;7.642;2023-11-21T02:27:39;18.13;;;11.83;;
3379;SDS011;1703;51.964;7.642;2023-11-21T02:30:42;20.20;;;12.50;;
3379;SDS011;1703;51.964;7.642;2023-11-21T02:33:26;23.00;;;13.00;;
3379;SDS011;1703;51.964;7.642;2023-11-21T02:36:16;25.47;;;14.03;;
3379;SDS011;1703;51.964;7.642;2023-11-21T02:38:56;19.53;;;11.90;;
3379;SDS011;1703;51.964;7.642;2023-11-21T02:45:40;21.77;;;12.20;;
3379;SDS011;1703;51.964;7.642;2023-11-21T02:48:45;18.80;;;12.70;;
3379;SDS011;1703;51.964;7.642;2023-11-21T03:10:01;19.40;;;12.87;;
3379;SDS011;1703;51.964;7.642;2023-11-21T03:22:28;34.40;;;15.03;;
3379;SDS011;1703;51.964;7.642;2023-11-21T03:35:50;34.00;;;17.50;;
3379;SDS011;1703;51.964;7.642;2023-11-21T03:39:13;32.40;;;15.33;;
3379;SDS011;1703;51.964;7.642;2023-11-21T03:42:38;29.77;;;16.03;;
3379;SDS011;1703;51.964;7.642;2023-11-21T03:52:52;34.00;;;15.93;;
3379;SDS011;1703;51.964;7.642;2023-11-21T03:55:46;34.40;;;16.10;;
3379;SDS011;1703;51.964;7.642;2023-11-21T03:58:16;30.93;;;14.87;;
3379;SDS011;1703;51.964;7.642;2023-11-21T04:01:04;39.80;;;18.53;;
3379;SDS011;1703;51.964;7.642;2023-11-21T04:03:34;33.13;;;15.97;;
3379;SDS011;1703;51.964;7.642;2023-11-21T04:06:23;32.90;;;16.00;;
3379;SDS011;1703;51.964;7.642;2023-11-21T04:09:11;33.43;;;16.73;;
3379;SDS011;1703;51.964;7.642;2023-11-21T04:12:24;34.10;;;16.10;;
3379;SDS011;1703;51.964;7.642;2023-11-21T04:16:09;35.47;;;15.60;;
3379;SDS011;1703;51.964;7.642;2023-11-21T04:35:55;29.47;;;15.70;;
3379;SDS011;1703;51.964;7.642;2023-11-21T04:38:42;36.90;;;16.50;;
3379;SDS011;1703;51.964;7.642;2023-11-21T04:41:51;35.83;;;16.80;;
3379;SDS011;1703;51.964;7.642;2023-11-21T04:45:56;31.20;;;17.33;;
3379;SDS011;1703;51.964;7.642;2023-11-21T04:48:38;26.80;;;14.30;;
3379;SDS011;1703;51.964;7.642;2023-11-21T04:54:40;31.93;;;15.93;;
3379;SDS011;1703;51.964;7.642;2023-11-21T04:57:28;30.07;;;14.30;;
3379;SDS011;1703;51.964;7.642;2023-11-21T05:00:07;33.97;;;15.00;;
3379;SDS011;1703;51.964;7.642;2023-11-21T05:06:20;39.33;;;15.13;;
3379;SDS011;1703;51.964;7.642;2023-11-21T05:08:50;31.60;;;16.63;;
3379;SDS011;1703;51.964;7.642;2023-11-21T05:11:24;41.20;;;15.33;;
3379;SDS011;1703;51.964;7.642;2023-11-21T05:13:52;28.67;;;14.63;;
3379;SDS011;1703;51.964;7.642;2023-11-21T05:16:20;35.63;;;16.20;;
3379;SDS011;1703;51.964;7.642;2023-11-21T05:18:49;35.47;;;18.23;;
3379;SDS011;1703;51.964;7.642;2023-11-21T05:21:16;42.93;;;17.90;;
3379;SDS011;1703;51.964;7.642;2023-11-21T05:23:46;32.37;;;16.90;;
3379;SDS011;1703;51.964;7.642;2023-11-21T05:26:12;39.50;;;15.70;;
3379;SDS011;1703;51.964;7.642;2023-11-21T05:28:39;38.53;;;15.80;;
3379;SDS011;1703;51.964;7.642;2023-11-21T05:31:06;30.10;;;14.90;;
3379;SDS011;1703;51.964;7.642;2023-11-21T05:33:34;35.77;;;17.50;;
3379;SDS011;1703;51.964;7.642;2023-11-21T05:36:06;36.53;;;17.67;;
3379;SDS011;1703;51.964;7.642;2023-11-21T05:38:37;38.90;;;16.50;;
3379;SDS011;1703;51.964;7.642;2023-11-21T05:41:11;38.47;;;18.23;;
3379;SDS011;1703;51.964;7.642;2023-11-21T05:43:39;33.53;;;18.27;;
3379;SDS011;1703;51.964;7.642;2023-11-21T05:46:06;38.63;;;18.47;;
3379;SDS011;1703;51.964;7.642;2023-11-21T05:48:34;42.53;;;18.00;;
3379;SDS011;1703;51.964;7.642;2023-11-21T05:51:07;41.10;;;18.73;;
3379;SDS011;1703;51.964;7.642;2023-11-21T05:53:42;37.93;;;19.43;;
3379;SDS011;1703;51.964;7.642;2023-11-21T05:56:31;39.40;;;18.90;;
3379;SDS011;1703;51.964;7.642;2023-11-21T05:59:07;48.17;;;19.80;;
3379;SDS011;1703;51.964;7.642;2023-11-21T06:01:37;49.23;;;18.83;;
3379;SDS011;1703;51.964;7.642;2023-11-21T06:04:14;40.53;;;17.50;;
3379;SDS011;1703;51.964;7.642;2023-11-21T06:07:00;30.23;;;16.33;;
3379;SDS011;1703;51.964;7.642;2023-11-21T06:09:57;41.53;;;16.63;;
3379;SDS011;1703;51.964;7.642;2023-11-21T06:12:30;39.60;;;17.63;;
3379;SDS011;1703;51.964;7.642;2023-11-21T06:18:23;31.00;;;17.67;;
3379;SDS011;1703;51.964;7.642;2023-11-21T06:21:02;38.63;;;16.50;;
3379;SDS011;1703;51.964;7.642;2023-11-21T06:23:41;39.97;;;18.43;;
3379;SDS011;1703;51.964;7.642;2023-11-21T06:26:16;42.70;;;18.03;;
3379;SDS011;1703;51.964;7.642;2023-11-21T06:29:20;30.63;;;16.13;;
3379;SDS011;1703;51.964;7.642;2023-11-21T06:32:06;39.77;;;16.87;;
3379;SDS011;1703;51.964;7.642;2023-11-21T06:35:12;34.43;;;16.23;;
3379;SDS011;1703;51.964;7.642;2023-11-21T06:40:59;44.13;;;18.37;;
3379;SDS011;1703;51.964;7.642;2023-11-21T06:43:27;35.63;;;15.90;;
3379;SDS011;1703;51.964;7.642;2023-11-21T06:45:56;32.27;;;17.50;;
3379;SDS011;1703;51.964;7.642;2023-11-21T06:48:26;42.50;;;16.80;;
3379;SDS011;1703;51.964;7.642;2023-11-21T06:50:53;41.30;;;15.30;;
3379;SDS011;1703;51.964;7.642;2023-11-21T06:53:29;49.33;;;17.73;;
3379;SDS011;1703;51.964;7.642;2023-11-21T06:56:49;51.90;;;18.40;;
3379;SDS011;1703;51.964;7.642;2023-11-21T06:59:38;42.27;;;17.60;;
3379;SDS011;1703;51.964;7.642;2023-11-21T07:02:52;39.70;;;19.10;;
3379;SDS011;1703;51.964;7.642;2023-11-21T07:06:14;50.20;;;18.80;;
3379;SDS011;1703;51.964;7.642;2023-11-21T07:21:07;38.70;;;17.00;;
3379;SDS011;1703;51.964;7.642;2023-11-21T07:24:40;41.90;;;17.90;;
3379;SDS011;1703;51.964;7.642;2023-11-21T07:28:07;37.90;;;17.00;;
3379;SDS011;1703;51.964;7.642;2023-11-21T08:12:44;42.60;;;17.87;;
3379;SDS011;1703;51.964;7.642;2023-11-21T08:15:13;46.23;;;18.50;;
3379;SDS011;1703;51.964;7.642;2023-11-21T08:18:50;44.53;;;19.10;;
3379;SDS011;1703;51.964;7.642;2023-11-21T08:25:13;46.73;;;19.83;;
3379;SDS011;1703;51.964;7.642;2023-11-21T08:32:06;49.67;;;19.10;;
3379;SDS011;1703;51.964;7.642;2023-11-21T08:35:08;50.90;;;18.33;;
3379;SDS011;1703;51.964;7.642;2023-11-21T08:52:23;48.70;;;18.50;;
3379;SDS011;1703;51.964;7.642;2023-11-21T08:54:54;45.23;;;19.57;;
3379;SDS011;1703;51.964;7.642;2023-11-21T08:57:25;51.20;;;18.60;;
3379;SDS011;1703;51.964;7.642;2023-11-21T08:59:58;39.77;;;18.03;;
3379;SDS011;1703;51.964;7.642;2023-11-21T09:02:32;43.77;;;18.13;;
3379;SDS011;1703;51.964;7.642;2023-11-21T09:05:02;34.77;;;17.23;;
3379;SDS011;1703;51.964;7.642;2023-11-21T09:08:28;42.00;;;16.63;;
3379;SDS011;1703;51.964;7.642;2023-11-21T09:15:03;45.63;;;18.57;;
3379;SDS011;1703;51.964;7.642;2023-11-21T09:20:52;36.80;;;16.60;;
3379;SDS011;1703;51.964;7.642;2023-11-21T09:22:13;30.50;;;15.63;;
3379;SDS011;1703;51.964;7.642;2023-11-21T09:28:22;25.13;;;15.17;;
3379;SDS011;1703;51.964;7.642;2023-11-21T09:30:59;23.67;;;12.97;;
3379;SDS011;1703;51.964;7.642;2023-11-21T09:33:43;23.23;;;13.87;;
3379;SDS011;1703;51.964;7.642;2023-11-21T09:36:26;28.00;;;13.57;;
3379;SDS011;1703;51.964;7.642;2023-11-21T09:38:55;23.70;;;12.40;;
3379;SDS011;1703;51.964;7.642;2023-11-21T09:41:33;29.07;;;13.70;;
3379;SDS011;1703;51.964;7.642;2023-11-21T09:44:31;23.47;;;12.70;;
3379;SDS011;1703;51.964;7.642;2023-11-21T09:47:41;24.80;;;13.10;;
3379;SDS011;1703;51.964;7.642;2023-11-21T09:50:15;19.13;;;11.07;;
3379;SDS011;1703;51.964;7.642;2023-11-21T09:53:34;15.60;;;8.70;;
3379;SDS011;1703;51.964;7.642;2023-11-21T09:57:07;20.43;;;10.57;;
3379;SDS011;1703;51.964;7.642;2023-11-21T10:00:34;19.67;;;10.60;;
3379;SDS011;1703;51.964;7.642;2023-11-21T10:03:45;16.63;;;9.63;;
3379;SDS011;1703;51.964;7.642;2023-11-21T10:22:30;23.97;;;11.63;;
3379;SDS011;1703;51.964;7.642;2023-11-21T10:26:15;18.57;;;10.80;;
3379;SDS011;1703;51.964;7.642;2023-11-21T10:30:00;19.80;;;11.80;;
3379;SDS011;1703;51.964;7.642;2023-11-21T10:47:53;21.10;;;11.30;;
3379;SDS011;1703;51.964;7.642;2023-11-21T10:50:26;25.97;;;11.10;;
3379;SDS011;1703;51.964;7.642;2023-11-21T10:52:54;19.37;;;10.37;;
3379;SDS011;1703;51.964;7.642;2023-11-21T10:55:22;25.73;;;13.00;;
3379;SDS011;1703;51.964;7.642;2023-11-21T10:57:51;18.17;;;11.40;;
3379;SDS011;1703;51.964;7.642;2023-11-21T11:00:21;18.83;;;10.60;;
3379;SDS011;1703;51.964;7.642;2023-11-21T11:02:50;16.97;;;10.03;;
3379;SDS011;1703;51.964;7.642;2023-11-21T11:05:19;22.33;;;10.83;;
3379;SDS011;1703;51.964;7.642;2023-11-21T11:07:50;20.10;;;10.57;;
3379;SDS011;1703;51.964;7.642;2023-11-21T11:10:19;21.23;;;10.70;;
3379;SDS011;1703;51.964;7.642;2023-11-21T11:12:48;18.30;;;9.17;;
3379;SDS011;1703;51.964;7.642;2023-11-21T11:15:15;16.73;;;10.30;;
3379;SDS011;1703;51.964;7.642;2023-11-21T11:17:45;17.20;;;9.67;;
3379;SDS011;1703;51.964;7.642;2023-11-21T11:20:12;20.13;;;10.80;;
3379;SDS011;1703;51.964;7.642;2023-11-21T11:22:43;22.10;;;10.10;;
3379;SDS011;1703;51.964;7.642;2023-11-21T11:25:19;14.70;;;9.33;;
3379;SDS011;1703;51.964;7.642;2023-11-21T11:27:58;21.10;;;10.77;;
3379;SDS011;1703;51.964;7.642;2023-11-21T11:30:33;14.37;;;9.20;;
3379;SDS011;1703;51.964;7.642;2023-11-21T11:33:11;19.33;;;9.63;;
3379;SDS011;1703;51.964;7.642;2023-11-21T11:35:52;16.00;;;9.60;;
3379;SDS011;1703;51.964;7.642;2023-11-21T11:38:23;17.07;;;10.13;;
3379;SDS011;1703;51.964;7.642;2023-11-21T11:40:53;16.80;;;9.50;;
3379;SDS011;1703;51.964;7.642;2023-11-21T11:43:26;14.87;;;10.03;;
3379;SDS011;1703;51.964;7.642;2023-11-21T11:45:55;14.20;;;7.87;;
3379;SDS011;1703;51.964;7.642;2023-11-21T11:48:25;18.10;;;9.93;;
3379;SDS011;1703;51.964;7.642;2023-11-21T11:51:01;14.17;;;9.70;;
3379;SDS011;1703;51.964;7.642;2023-11-21T11:53:33;15.60;;;10.23;;
3379;SDS011;1703;51.964;7.642;2023-11-21T11:56:24;16.60;;;11.00;;
3379;SDS011;1703;51.964;7.642;2023-11-21T11:58:53;17.67;;;10.70;;
3379;SDS011;1703;51.964;7.642;2023-11-21T12:01:21;11.80;;;8.07;;
3379;SDS011;1703;51.964;7.642;2023-11-21T12:07:04;10.73;;;7.07;;
3379;SDS011;1703;51.964;7.642;2023-11-21T12:09:32;13.60;;;7.73;;
3379;SDS011;1703;51.964;7.642;2023-11-21T12:11:59;9.33;;;6.80;;
3379;SDS011;1703;51.964;7.642;2023-11-21T12:14:27;10.17;;;6.80;;
3379;SDS011;1703;51.964;7.642;2023-11-21T12:16:54;6.87;;;5.50;;
3379;SDS011;1703;51.964;7.642;2023-11-21T12:19:21;8.67;;;5.70;;
3379;SDS011;1703;51.964;7.642;2023-11-21T12:21:48;7.20;;;5.60;;
3379;SDS011;1703;51.964;7.642;2023-11-21T12:24:17;7.87;;;4.40;;
3379;SDS011;1703;51.964;7.642;2023-11-21T12:26:44;4.53;;;4.03;;
3379;SDS011;1703;51.964;7.642;2023-11-21T12:29:11;7.70;;;5.23;;
3379;SDS011;1703;51.964;7.642;2023-11-21T12:31:38;6.60;;;5.10;;
3379;SDS011;1703;51.964;7.642;2023-11-21T12:34:05;6.03;;;5.27;;
3379;SDS011;1703;51.964;7.642;2023-11-21T12:36:34;6.80;;;5.03;;
3379;SDS011;1703;51.964;7.642;2023-11-21T12:39:01;6.57;;;5.37;;
3379;SDS011;1703;51.964;7.642;2023-11-21T12:41:30;6.67;;;5.10;;
3379;SDS011;1703;51.964;7.642;2023-11-21T12:43:57;8.30;;;5.97;;
3379;SDS011;1703;51.964;7.642;2023-11-21T12:46:24;7.97;;;5.93;;
3379;SDS011;1703;51.964;7.642;2023-11-21T12:48:54;7.77;;;5.87;;
3379;SDS011;1703;51.964;7.642;2023-11-21T12:51:21;10.40;;;5.70;;
3379;SDS011;1703;51.964;7.642;2023-11-21T12:53:50;8.50;;;6.20;;
3379;SDS011;1703;51.964;7.642;2023-11-21T12:56:18;18.73;;;7.00;;
3379;SDS011;1703;51.964;7.642;2023-11-21T12:58:49;9.07;;;5.60;;
3379;SDS011;1703;51.964;7.642;2023-11-21T13:01:19;8.50;;;6.23;;
3379;SDS011;1703;51.964;7.642;2023-11-21T13:03:48;9.70;;;6.63;;
3379;SDS011;1703;51.964;7.642;2023-11-21T13:06:16;10.80;;;6.63;;
3379;SDS011;1703;51.964;7.642;2023-11-21T13:08:44;8.60;;;5.73;;
3379;SDS011;1703;51.964;7.642;2023-11-21T13:11:12;5.57;;;5.03;;
3379;SDS011;1703;51.964;7.642;2023-11-21T13:13:40;9.73;;;5.80;;
3379;SDS011;1703;51.964;7.642;2023-11-21T13:16:09;6.50;;;5.90;;
3379;SDS011;1703;51.964;7.642;2023-11-21T13:18:39;8.80;;;6.20;;
3379;SDS011;1703;51.964;7.642;2023-11-21T13:21:08;12.93;;;7.10;;
3379;SDS011;1703;51.964;7.642;2023-11-21T13:23:39;15.00;;;6.73;;
3379;SDS011;1703;51.964;7.642;2023-11-21T13:26:07;21.60;;;7.50;;
3379;SDS011;1703;51.964;7.642;2023-11-21T13:28:34;10.10;;;7.67;;
3379;SDS011;1703;51.964;7.642;2023-11-21T13:31:02;9.40;;;7.27;;
3379;SDS011;1703;51.964;7.642;2023-11-21T13:33:36;11.07;;;8.80;;
3379;SDS011;1703;51.964;7.642;2023-11-21T13:36:04;14.03;;;7.93;;
3379;SDS011;1703;51.964;7.642;2023-11-21T13:38:33;15.07;;;8.17;;
3379;SDS011;1703;51.964;7.642;2023-11-21T13:41:01;11.47;;;8.37;;
3379;SDS011;1703;51.964;7.642;2023-11-21T13:43:32;15.60;;;9.10;;
3379;SDS011;1703;51.964;7.642;2023-11-21T13:45:59;14.30;;;9.47;;
3379;SDS011;1703;51.964;7.642;2023-11-21T13:48:29;15.03;;;9.87;;
3379;SDS011;1703;51.964;7.642;2023-11-21T13:51:07;18.83;;;11.90;;
3379;SDS011;1703;51.964;7.642;2023-11-21T13:53:41;19.97;;;12.23;;
3379;SDS011;1703;51.964;7.642;2023-11-21T13:56:08;22.87;;;11.73;;
3379;SDS011;1703;51.964;7.642;2023-11-21T13:58:35;16.93;;;11.77;;
3379;SDS011;1703;51.964;7.642;2023-11-21T14:01:10;17.60;;;11.43;;
3379;SDS011;1703;51.964;7.642;2023-11-21T14:03:50;12.70;;;9.37;;
3379;SDS011;1703;51.964;7.642;2023-11-21T14:06:24;13.70;;;9.93;;
3379;SDS011;1703;51.964;7.642;2023-11-21T14:08:59;15.00;;;9.17;;
3379;SDS011;1703;51.964;7.642;2023-11-21T14:11:30;11.20;;;9.40;;
3379;SDS011;1703;51.964;7.642;2023-11-21T14:13:57;12.83;;;8.70;;
3379;SDS011;1703;51.964;7.642;2023-11-21T14:16:24;10.37;;;8.20;;
3379;SDS011;1703;51.964;7.642;2023-11-21T14:18:51;10.33;;;7.70;;
3379;SDS011;1703;51.964;7.642;2023-11-21T14:21:30;14.53;;;7.40;;
3379;SDS011;1703;51.964;7.642;2023-11-21T14:23:57;12.20;;;8.10;;
3379;SDS011;1703;51.964;7.642;2023-11-21T14:26:24;7.20;;;6.20;;
3379;SDS011;1703;51.964;7.642;2023-11-21T14:28:51;7.07;;;6.37;;
3379;SDS011;1703;51.964;7.642;2023-11-21T14:31:19;10.30;;;6.50;;
3379;SDS011;1703;51.964;7.642;2023-11-21T14:33:46;8.30;;;6.37;;
3379;SDS011;1703;51.964;7.642;2023-11-21T14:36:13;11.07;;;6.60;;
3379;SDS011;1703;51.964;7.642;2023-11-21T14:38:44;8.47;;;6.60;;
3379;SDS011;1703;51.964;7.642;2023-11-21T14:41:12;8.97;;;7.10;;
3379;SDS011;1703;51.964;7.642;2023-11-21T14:43:44;16.13;;;5.90;;
3379;SDS011;1703;51.964;7.642;2023-11-21T14:46:43;8.10;;;6.60;;
3379;SDS011;1703;51.964;7.642;2023-11-21T14:50:25;11.03;;;7.30;;
3379;SDS011;1703;51.964;7.642;2023-11-21T14:53:55;9.30;;;7.10;;
3379;SDS011;1703;51.964;7.642;2023-11-21T14:57:20;8.00;;;6.30;;
3379;SDS011;1703;51.964;7.642;2023-11-21T15:10:12;7.87;;;5.70;;
3379;SDS011;1703;51.964;7.642;2023-11-21T15:12:53;6.83;;;5.73;;
3379;SDS011;1703;51.964;7.642;2023-11-21T15:19:56;7.20;;;5.67;;
3379;SDS011;1703;51.964;7.642;2023-11-21T15:22:43;7.00;;;5.97;;
3379;SDS011;1703;51.964;7.642;2023-11-21T15:31:37;7.13;;;5.03;;
3379;SDS011;1703;51.964;7.642;2023-11-21T15:34:06;7.57;;;5.47;;
3379;SDS011;1703;51.964;7.642;2023-11-21T15:36:33;6.60;;;5.20;;
3379;SDS011;1703;51.964;7.642;2023-11-21T15:39:00;8.37;;;6.03;;
3379;SDS011;1703;51.964;7.642;2023-11-21T15:41:30;6.77;;;6.00;;
3379;SDS011;1703;51.964;7.642;2023-11-21T15:43:57;7.47;;;5.43;;
3379;SDS011;1703;51.964;7.642;2023-11-21T15:46:24;9.47;;;5.70;;
3379;SDS011;1703;51.964;7.642;2023-11-21T15:49:03;9.37;;;6.17;;
3379;SDS011;1703;51.964;7.642;2023-11-21T15:51:38;7.40;;;5.43;;
3379;SDS011;1703;51.964;7.642;2023-11-21T15:54:10;5.20;;;4.63;;
3379;SDS011;1703;51.964;7.642;2023-11-21T16:04:29;5.60;;;5.00;;
3379;SDS011;1703;51.964;7.642;2023-11-21T16:08:06;9.03;;;6.90;;
3379;SDS011;1703;51.964;7.642;2023-11-21T16:13:41;9.03;;;6.43;;
3379;SDS011;1703;51.964;7.642;2023-11-21T16:16:22;8.33;;;6.17;;
3379;SDS011;1703;51.964;7.642;2023-11-21T16:18:50;7.97;;;6.37;;
3379;SDS011;1703;51.964;7.642;2023-11-21T16:21:23;14.10;;;7.57;;
3379;SDS011;1703;51.964;7.642;2023-11-21T16:23:49;14.93;;;6.50;;
3379;SDS011;1703;51.964;7.642;2023-11-21T16:26:16;9.97;;;6.50;;
3379;SDS011;1703;51.964;7.642;2023-11-21T16:28:44;20.57;;;7.47;;
3379;SDS011;1703;51.964;7.642;2023-11-21T16:31:11;9.23;;;6.73;;
3379;SDS011;1703;51.964;7.642;2023-11-21T16:33:42;9.70;;;6.90;;
3379;SDS011;1703;51.964;7.642;2023-11-21T16:36:09;10.00;;;8.03;;
3379;SDS011;1703;51.964;7.642;2023-11-21T16:41:59;8.70;;;7.40;;
3379;SDS011;1703;51.964;7.642;2023-11-21T16:44:38;12.63;;;7.10;;
3379;SDS011;1703;51.964;7.642;2023-11-21T16:47:14;10.30;;;6.90;;
3379;SDS011;1703;51.964;7.642;2023-11-21T16:49:42;19.53;;;7.70;;
3379;SDS011;1703;51.964;7.642;2023-11-21T16:52:10;11.73;;;6.77;;
3379;SDS011;1703;51.964;7.642;2023-11-21T16:54:37;12.40;;;8.47;;
3379;SDS011;1703;51.964;7.642;2023-11-21T16:57:04;12.97;;;8.10;;
3379;SDS011;1703;51.964;7.642;2023-11-21T16:59:34;11.00;;;8.17;;
3379;SDS011;1703;51.964;7.642;2023-11-21T17:02:00;15.07;;;8.43;;
3379;SDS011;1703;51.964;7.642;2023-11-21T17:04:58;13.00;;;8.53;;
3379;SDS011;1703;51.964;7.642;2023-11-21T17:07:27;10.60;;;8.00;;
3379;SDS011;1703;51.964;7.642;2023-11-21T17:09:54;12.33;;;7.60;;
3379;SDS011;1703;51.964;7.642;2023-11-21T17:12:23;8.40;;;6.73;;
3379;SDS011;1703;51.964;7.642;2023-11-21T17:14:51;9.20;;;7.43;;
3379;SDS011;1703;51.964;7.642;2023-11-21T17:17:19;9.97;;;6.27;;
3379;SDS011;1703;51.964;7.642;2023-11-21T17:19:45;10.73;;;6.53;;
3379;SDS011;1703;51.964;7.642;2023-11-21T17:22:13;8.50;;;6.83;;
3379;SDS011;1703;51.964;7.642;2023-11-21T17:24:40;9.40;;;7.15;;
3379;SDS011;1703;51.964;7.642;2023-11-21T17:27:09;11.00;;;7.33;;
3379;SDS011;1703;51.964;7.642;2023-11-21T17:29:37;11.50;;;7.47;;
3379;SDS011;1703;51.964;7.642;2023-11-21T17:32:05;14.47;;;8.30;;
3379;SDS011;1703;51.964;7.642;2023-11-21T17:34:32;10.90;;;8.77;;
3379;SDS011;1703;51.964;7.642;2023-11-21T17:36:59;11.67;;;8.30;;
3379;SDS011;1703;51.964;7.642;2023-11-21T17:39:27;12.13;;;7.50;;
3379;SDS011;1703;51.964;7.642;2023-11-21T17:41:55;8.97;;;7.47;;
3379;SDS011;1703;51.964;7.642;2023-11-21T17:44:22;10.70;;;8.10;;
3379;SDS011;1703;51.964;7.642;2023-11-21T17:46:50;11.53;;;8.80;;
3379;SDS011;1703;51.964;7.642;2023-11-21T17:49:17;10.33;;;7.70;;
3379;SDS011;1703;51.964;7.642;2023-11-21T17:51:44;10.83;;;7.97;;
3379;SDS011;1703;51.964;7.642;2023-11-21T17:54:12;12.70;;;7.80;;
3379;SDS011;1703;51.964;7.642;2023-11-21T17:56:39;10.47;;;7.67;;
3379;SDS011;1703;51.964;7.642;2023-11-21T17:59:06;17.60;;;9.93;;
3379;SDS011;1703;51.964;7.642;2023-11-21T18:01:36;45.97;;;24.33;;
3379;SDS011;1703;51.964;7.642;2023-11-21T18:04:05;13.00;;;10.23;;
3379;SDS011;1703;51.964;7.642;2023-11-21T18:06:35;11.27;;;8.40;;
3379;SDS011;1703;51.964;7.642;2023-11-21T18:09:20;11.17;;;7.93;;
3379;SDS011;1703;51.964;7.642;2023-11-21T18:11:56;11.30;;;7.60;;
3379;SDS011;1703;51.964;7.642;2023-11-21T18:14:33;11.93;;;10.00;;
3379;SDS011;1703;51.964;7.642;2023-11-21T18:17:04;12.00;;;9.90;;
3379;SDS011;1703;51.964;7.642;2023-11-21T18:19:33;19.17;;;9.97;;
3379;SDS011;1703;51.964;7.642;2023-11-21T18:22:00;12.40;;;9.47;;
3379;SDS011;1703;51.964;7.642;2023-11-21T18:24:27;13.33;;;9.40;;
3379;SDS011;1703;51.964;7.642;2023-11-21T18:26:54;13.93;;;7.57;;
3379;SDS011;1703;51.964;7.642;2023-11-21T18:29:21;9.97;;;7.67;;
3379;SDS011;1703;51.964;7.642;2023-11-21T18:31:48;9.30;;;7.57;;
3379;SDS011;1703;51.964;7.642;2023-11-21T18:34:14;13.20;;;6.57;;
3379;SDS011;1703;51.964;7.642;2023-11-21T18:36:44;10.93;;;8.10;;
3379;SDS011;1703;51.964;7.642;2023-11-21T18:39:11;11.97;;;9.03;;
3379;SDS011;1703;51.964;7.642;2023-11-21T18:41:40;13.97;;;9.20;;
3379;SDS011;1703;51.964;7.642;2023-11-21T18:44:07;17.87;;;9.93;;
3379;SDS011;1703;51.964;7.642;2023-11-21T18:46:37;11.00;;;8.07;;
3379;SDS011;1703;51.964;7.642;2023-11-21T18:49:05;13.60;;;10.10;;
3379;SDS011;1703;51.964;7.642;2023-11-21T18:51:32;15.33;;;9.77;;
3379;SDS011;1703;51.964;7.642;2023-11-21T18:54:00;23.93;;;11.70;;
3379;SDS011;1703;51.964;7.642;2023-11-21T18:56:27;16.77;;;11.40;;
3379;SDS011;1703;51.964;7.642;2023-11-21T18:58:56;15.10;;;10.80;;
3379;SDS011;1703;51.964;7.642;2023-11-21T19:01:23;12.37;;;10.77;;
3379;SDS011;1703;51.964;7.642;2023-11-21T19:03:51;19.90;;;12.03;;
3379;SDS011;1703;51.964;7.642;2023-11-21T19:06:18;17.70;;;11.03;;
3379;SDS011;1703;51.964;7.642;2023-11-21T19:08:46;15.37;;;11.63;;
3379;SDS011;1703;51.964;7.642;2023-11-21T19:11:15;17.07;;;9.97;;
3379;SDS011;1703;51.964;7.642;2023-11-21T19:13:42;19.13;;;12.13;;
3379;SDS011;1703;51.964;7.642;2023-11-21T19:16:14;19.17;;;11.10;;
3379;SDS011;1703;51.964;7.642;2023-11-21T19:18:41;15.13;;;10.63;;
3379;SDS011;1703;51.964;7.642;2023-11-21T19:21:12;14.93;;;9.63;;
3379;SDS011;1703;51.964;7.642;2023-11-21T19:23:41;15.40;;;10.37;;
3379;SDS011;1703;51.964;7.642;2023-11-21T19:26:08;16.80;;;11.83;;
3379;SDS011;1703;51.964;7.642;2023-11-21T19:28:37;17.47;;;11.10;;
3379;SDS011;1703;51.964;7.642;2023-11-21T19:31:04;12.40;;;9.70;;
3379;SDS011;1703;51.964;7.642;2023-11-21T19:33:32;16.40;;;10.67;;
3379;SDS011;1703;51.964;7.642;2023-11-21T19:35:59;17.10;;;11.37;;
3379;SDS011;1703;51.964;7.642;2023-11-21T19:38:27;15.13;;;11.00;;
3379;SDS011;1703;51.964;7.642;2023-11-21T19:40:56;16.40;;;10.60;;
3379;SDS011;1703;51.964;7.642;2023-11-21T19:43:23;13.47;;;9.83;;
3379;SDS011;1703;51.964;7.642;2023-11-21T19:45:51;16.20;;;10.00;;
3379;SDS011;1703;51.964;7.642;2023-11-21T19:48:18;16.63;;;9.60;;
3379;SDS011;1703;51.964;7.642;2023-11-21T19:50:48;16.37;;;12.60;;
3379;SDS011;1703;51.964;7.642;2023-11-21T19:53:15;18.23;;;9.87;;
3379;SDS011;1703;51.964;7.642;2023-11-21T19:55:41;16.67;;;11.20;;
3379;SDS011;1703;51.964;7.642;2023-11-21T19:58:08;16.13;;;11.60;;
3379;SDS011;1703;51.964;7.642;2023-11-21T20:00:36;14.20;;;10.60;;
3379;SDS011;1703;51.964;7.642;2023-11-21T20:03:04;19.57;;;12.50;;
3379;SDS011;1703;51.964;7.642;2023-11-21T20:05:31;14.13;;;10.20;;
3379;SDS011;1703;51.964;7.642;2023-11-21T20:07:57;14.73;;;9.23;;
3379;SDS011;1703;51.964;7.642;2023-11-21T20:10:24;17.00;;;10.03;;